createdAt,value
2022-12-31T05:02:31.871Z,1.60
2022-12-31T05:06:43.451Z,1.27
2022-12-31T05:10:54.941Z,1.48
2022-12-31T05:15:07.992Z,1.33
2022-12-31T05:19:19.580Z,1.40
2022-12-31T05:23:31.058Z,1.70
2022-12-31T05:27:43.663Z,1.40
2022-12-31T05:31:55.182Z,1.65
2022-12-31T05:36:06.967Z,1.65
2022-12-31T05:40:18.854Z,1.40
2022-12-31T05:44:30.329Z,1.40
2022-12-31T05:48:41.837Z,1.65
2022-12-31T05:52:53.321Z,1.48
2022-12-31T05:57:05.216Z,1.63
2022-12-31T06:01:16.788Z,1.48
2022-12-31T06:05:28.347Z,1.70
2022-12-31T06:09:39.862Z,1.85
2022-12-31T06:13:51.553Z,2.17
2022-12-31T06:18:04.345Z,1.60
2022-12-31T06:22:16.217Z,1.90
2022-12-31T06:26:28.045Z,2.45
2022-12-31T06:30:39.552Z,2.00
2022-12-31T06:34:51.048Z,2.17
2022-12-31T06:39:02.538Z,2.20
2022-12-31T06:43:14.034Z,1.90
2022-12-31T06:47:25.905Z,2.20
2022-12-31T06:51:38.051Z,2.35
2022-12-31T06:55:50.131Z,2.35
2022-12-31T07:00:01.951Z,2.30
2022-12-31T07:04:34.590Z,2.53
2022-12-31T07:09:06.936Z,2.38
2022-12-31T07:13:39.615Z,2.78
2022-12-31T07:18:13.772Z,3.05
2022-12-31T07:22:26.557Z,2.72
2022-12-31T07:26:52.563Z,2.58
2022-12-31T07:31:32.659Z,2.67
2022-12-31T07:36:34.273Z,2.40
2022-12-31T07:41:13.581Z,2.67
2022-12-31T07:45:29.570Z,3.22
2022-12-31T07:49:42.822Z,3.05
2022-12-31T07:53:54.291Z,3.42
2022-12-31T07:58:22.233Z,2.17
2022-12-31T08:03:11.099Z,2.90
2022-12-31T08:08:00.309Z,2.33
2022-12-31T08:12:11.920Z,2.20
2022-12-31T08:16:23.667Z,2.10
2022-12-31T08:21:00.880Z,2.40
2022-12-31T08:25:27.481Z,2.60
2022-12-31T08:29:46.505Z,2.38
2022-12-31T08:34:31.699Z,3.05
2022-12-31T08:39:02.139Z,2.72
2022-12-31T08:43:32.887Z,2.30
2022-12-31T08:48:04.561Z,2.88
2022-12-31T08:52:23.140Z,2.42
2022-12-31T08:56:43.703Z,2.40
2022-12-31T09:00:59.234Z,2.53
2022-12-31T09:05:32.489Z,2.40
2022-12-31T09:10:02.884Z,2.60
2022-12-31T09:14:45.045Z,3.00
2022-12-31T09:18:56.557Z,2.78
2022-12-31T09:23:08.259Z,2.58
2022-12-31T09:27:54.614Z,2.42
2022-12-31T09:32:06.069Z,2.67
2022-12-31T09:36:34.344Z,2.75
2022-12-31T09:41:22.918Z,2.70
2022-12-31T09:46:08.781Z,2.72
2022-12-31T09:50:35.578Z,2.50
2022-12-31T09:55:17.906Z,2.70
2022-12-31T10:00:01.356Z,2.50
2022-12-31T10:04:58.149Z,2.10
2022-12-31T10:09:40.068Z,2.20
2022-12-31T10:14:13.537Z,2.33
2022-12-31T10:18:54.513Z,2.20
2022-12-31T10:23:35.271Z,2.45
2022-12-31T10:27:59.314Z,3.15
2022-12-31T10:32:31.722Z,2.28
2022-12-31T10:36:53.289Z,1.92
2022-12-31T10:41:38.553Z,2.10
2022-12-31T10:46:34.834Z,2.13
2022-12-31T10:51:11.200Z,2.20
2022-12-31T10:55:55.637Z,1.85
2022-12-31T11:00:16.252Z,1.55
2022-12-31T11:04:27.693Z,1.77
2022-12-31T11:09:10.049Z,1.85
2022-12-31T11:14:18.884Z,2.17
2022-12-31T11:18:39.919Z,1.63
2022-12-31T11:23:09.118Z,1.73
2022-12-31T11:27:49.292Z,1.60
2022-12-31T11:32:16.927Z,1.73
2022-12-31T11:37:02.599Z,1.80
2022-12-31T11:41:19.964Z,1.50
2022-12-31T11:45:50.753Z,1.60
2022-12-31T11:50:27.346Z,1.60
2022-12-31T11:55:12.697Z,1.35
2022-12-31T11:59:24.338Z,1.55
2022-12-31T12:03:42.299Z,1.58
2022-12-31T12:07:55.689Z,1.60
2022-12-31T12:12:07.262Z,1.40
2022-12-31T12:16:21.301Z,1.63
2022-12-31T12:20:37.089Z,1.40
2022-12-31T12:25:13.307Z,1.50
2022-12-31T12:29:31.189Z,1.50
2022-12-31T12:33:45.473Z,1.42
2022-12-31T12:38:05.680Z,1.98
2022-12-31T12:42:17.175Z,1.65
2022-12-31T12:46:49.163Z,1.70
2022-12-31T12:51:01.516Z,1.40
2022-12-31T12:55:29.607Z,1.88
2022-12-31T12:59:51.442Z,1.67
2022-12-31T13:04:33.522Z,1.58
2022-12-31T13:09:18.609Z,1.80
2022-12-31T13:13:45.014Z,1.50
2022-12-31T13:18:22.800Z,1.70
2022-12-31T13:22:47.861Z,1.48
2022-12-31T13:27:10.064Z,1.65
2022-12-31T13:31:31.791Z,1.70
2022-12-31T13:35:52.124Z,1.50
2022-12-31T13:40:17.267Z,1.50
2022-12-31T13:44:36.248Z,1.73
2022-12-31T13:48:56.106Z,1.63
2022-12-31T13:53:25.804Z,1.75
2022-12-31T13:57:54.676Z,1.60
2022-12-31T14:02:06.199Z,1.70
2022-12-31T14:06:27.214Z,1.70
2022-12-31T14:11:01.759Z,1.25
2022-12-31T14:15:16.126Z,1.80
2022-12-31T14:19:52.457Z,1.40
2022-12-31T14:24:14.342Z,1.20
2022-12-31T14:28:46.968Z,1.58
2022-12-31T14:33:22.340Z,1.05
2022-12-31T14:37:52.281Z,1.50
2022-12-31T14:42:33.284Z,2.10
2022-12-31T14:47:22.790Z,1.80
2022-12-31T14:51:36.473Z,1.38
2022-12-31T14:55:57.871Z,1.90
2022-12-31T15:00:24.855Z,1.30
2022-12-31T15:04:44.743Z,1.77
2022-12-31T15:08:56.179Z,1.77
2022-12-31T15:13:41.243Z,1.70
2022-12-31T15:17:52.641Z,2.10
2022-12-31T15:22:20.458Z,1.60
2022-12-31T15:26:32.404Z,1.73
2022-12-31T15:30:47.123Z,2.13
2022-12-31T15:35:21.523Z,1.65
2022-12-31T15:39:32.945Z,1.55
2022-12-31T15:43:57.555Z,1.67
2022-12-31T15:48:17.931Z,1.45
2022-12-31T15:52:59.904Z,1.70
2022-12-31T15:57:20.810Z,1.55
2022-12-31T16:01:34.881Z,1.50
2022-12-31T16:05:46.437Z,1.55
2022-12-31T16:10:00.127Z,1.50
2022-12-31T16:14:20.250Z,1.40
2022-12-31T16:18:43.464Z,1.80
2022-12-31T16:22:58.913Z,2.15
2022-12-31T16:27:16.283Z,1.50
2022-12-31T16:31:29.990Z,1.60
2022-12-31T16:35:41.578Z,1.67
2022-12-31T16:39:56.022Z,1.60
2022-12-31T16:44:25.225Z,1.33
2022-12-31T16:48:37.467Z,1.75
2022-12-31T16:52:53.955Z,1.50
2022-12-31T16:57:06.356Z,2.78
2022-12-31T17:01:22.579Z,2.00
2022-12-31T17:05:52.687Z,1.30
2022-12-31T17:10:07.203Z,1.45
2022-12-31T17:14:23.189Z,1.88
2022-12-31T17:18:38.621Z,1.30
2022-12-31T17:22:52.642Z,1.65
2022-12-31T17:27:07.328Z,1.63
2022-12-31T17:31:28.940Z,2.50
2022-12-31T17:35:42.740Z,1.48
2022-12-31T17:40:24.627Z,2.40
2022-12-31T17:44:38.023Z,2.80
2022-12-31T17:48:53.828Z,1.63
2022-12-31T17:53:12.750Z,1.70
2022-12-31T17:57:27.512Z,2.20
2022-12-31T18:01:39.253Z,2.03
2022-12-31T18:05:51.195Z,1.60
2022-12-31T18:10:02.672Z,2.25
2022-12-31T18:14:15.631Z,1.85
2022-12-31T18:18:29.497Z,2.00
2022-12-31T18:22:43.235Z,1.58
2022-12-31T18:26:55.161Z,1.63
2022-12-31T18:31:06.995Z,1.80
2022-12-31T18:35:49.006Z,1.90
2022-12-31T18:39:52.226Z,2.25
2022-12-31T18:44:03.833Z,1.52
2022-12-31T18:48:16.523Z,1.75
2022-12-31T18:52:28.003Z,1.75
2022-12-31T18:56:44.863Z,2.17
2022-12-31T19:00:58.757Z,2.20
2022-12-31T19:05:29.170Z,2.33
2022-12-31T19:09:45.737Z,1.90
2022-12-31T19:13:57.946Z,1.80
2022-12-31T19:18:09.682Z,1.90
2022-12-31T19:22:21.204Z,1.65
2022-12-31T19:26:34.773Z,2.22
2022-12-31T19:30:49.130Z,1.63
2022-12-31T19:35:00.686Z,2.00
2022-12-31T19:39:18.559Z,2.03
2022-12-31T19:43:30.191Z,2.05
2022-12-31T19:47:41.842Z,1.90
2022-12-31T19:51:53.369Z,1.85
2022-12-31T19:56:05.609Z,1.50
2022-12-31T20:00:18.426Z,1.70
2022-12-31T20:04:29.981Z,1.73
2022-12-31T20:08:46.396Z,1.92
2022-12-31T20:12:57.891Z,2.20
2022-12-31T20:17:09.489Z,1.80
2022-12-31T20:21:23.362Z,2.00
2022-12-31T20:25:34.852Z,1.95
2022-12-31T20:29:46.308Z,2.10
2022-12-31T20:33:57.906Z,1.85
2022-12-31T20:38:09.403Z,1.80
2022-12-31T20:42:20.923Z,2.25
2022-12-31T20:46:32.676Z,1.80
2022-12-31T20:50:54.214Z,1.92
2022-12-31T20:55:06.191Z,2.15
2022-12-31T20:59:17.705Z,2.00
2022-12-31T21:08:00.648Z,1.95
2022-12-31T21:12:30.739Z,1.90
2022-12-31T21:16:42.232Z,1.90
2022-12-31T21:20:53.721Z,1.80
2022-12-31T21:25:05.822Z,1.80
2022-12-31T21:29:17.315Z,1.80
2022-12-31T21:33:29.052Z,1.80
2022-12-31T21:37:59.155Z,1.90
2022-12-31T21:42:12.350Z,2.00
2022-12-31T21:46:24.057Z,1.83
2022-12-31T21:50:35.667Z,1.92
2022-12-31T21:55:05.776Z,2.10
2022-12-31T21:59:36.726Z,2.70
2022-12-31T22:03:51.060Z,2.22
2022-12-31T22:08:02.880Z,2.20
2022-12-31T22:12:14.445Z,2.38
2022-12-31T22:16:25.991Z,2.25
2022-12-31T22:20:37.545Z,2.20
2022-12-31T22:24:49.053Z,2.70
2022-12-31T22:29:00.561Z,2.30
